Time;durP1;ratioP1;P1;durP2;ratioP2;P2;SDS_P1;SDS_P2;PMS_P1;PMS_P2;Temp;Humidity;BMP_temperature;BMP_pressure;BME280_temperature;BME280_humidity;BME280_pressure;Samples;Min_cycle;Max_cycle;Signal;HPM_P1;HPM_P2
2021/04/28 00:01:43;;;;;;;9.23;5.80;;;6.60;52.70;;;;;;5014149;28;20032;-78
2021/04/28 00:04:09;;;;;;;7.82;5.65;;;6.70;51.80;;;;;;5045333;28;20032;-77
2021/04/28 00:06:34;;;;;;;11.05;6.30;;;6.80;51.60;;;;;;5032007;28;20085;-78
2021/04/28 00:09:01;;;;;;;9.70;6.22;;;6.60;51.80;;;;;;5012692;28;20036;-78
2021/04/28 00:11:27;;;;;;;7.43;5.78;;;6.60;52.00;;;;;;5027899;28;20126;-78
2021/04/28 00:13:52;;;;;;;9.07;6.05;;;6.50;52.20;;;;;;5024593;28;20056;-77
2021/04/28 00:16:20;;;;;;;11.10;5.97;;;6.30;52.90;;;;;;5040111;28;20040;-78
2021/04/28 00:18:47;;;;;;;13.43;6.05;;;6.20;53.30;;;;;;5017284;28;20400;-77
2021/04/28 00:21:13;;;;;;;16.02;6.13;;;6.30;53.00;;;;;;5043664;28;20484;-78
2021/04/28 00:23:39;;;;;;;15.32;6.43;;;6.10;53.50;;;;;;5012603;28;20461;-78
2021/04/28 00:26:05;;;;;;;9.57;6.10;;;6.30;53.30;;;;;;5042621;28;20392;-78
2021/04/28 00:28:30;;;;;;;8.43;6.00;;;6.30;52.60;;;;;;5030901;28;20119;-78
2021/04/28 00:30:56;;;;;;;10.38;6.20;;;6.30;52.50;;;;;;5013197;28;20458;-77
2021/04/28 00:33:21;;;;;;;10.25;6.47;;;6.40;51.80;;;;;;5029866;28;20035;-78
2021/04/28 00:35:47;;;;;;;11.88;6.65;;;6.20;52.40;;;;;;5029899;28;20039;-78
2021/04/28 00:38:12;;;;;;;10.50;6.40;;;6.20;52.30;;;;;;5023398;28;20119;-77
2021/04/28 00:40:39;;;;;;;14.18;6.97;;;6.20;52.00;;;;;;5024925;28;20052;-78
2021/04/28 00:43:05;;;;;;;10.05;6.25;;;6.30;52.10;;;;;;5014295;28;20025;-78
2021/04/28 00:45:33;;;;;;;9.13;6.45;;;6.20;52.00;;;;;;5064105;28;20039;-78
2021/04/28 00:48:00;;;;;;;14.05;7.45;;;6.20;51.70;;;;;;5025686;28;20028;-77
2021/04/28 00:50:45;;;;;;;11.43;6.78;;;6.20;53.10;;;;;;5011191;28;20098;-78
2021/04/28 00:53:13;;;;;;;10.15;7.00;;;6.00;52.80;;;;;;5017115;28;20087;-78
2021/04/28 00:55:39;;;;;;;9.77;6.90;;;5.60;55.00;;;;;;5029355;28;20044;-78
2021/04/28 00:58:04;;;;;;;9.18;7.13;;;5.70;54.60;;;;;;5065221;28;20029;-77
2021/04/28 01:00:30;;;;;;;11.85;6.57;;;5.80;53.80;;;;;;5019439;28;20053;-77
2021/04/28 01:02:57;;;;;;;10.00;6.70;;;5.90;53.50;;;;;;5015289;28;20221;-77
2021/04/28 01:05:22;;;;;;;9.70;6.72;;;5.90;53.10;;;;;;5026429;28;20041;-78
2021/04/28 01:07:49;;;;;;;9.75;5.88;;;5.90;52.30;;;;;;5025216;28;20048;-78
2021/04/28 01:10:19;;;;;;;7.60;6.07;;;5.90;52.00;;;;;;5032713;28;20529;-78
2021/04/28 01:12:44;;;;;;;9.07;6.82;;;5.90;51.90;;;;;;5025796;28;20025;-77
2021/04/28 01:15:12;;;;;;;9.45;7.03;;;5.80;52.20;;;;;;5023225;28;20579;-78
2021/04/28 01:17:38;;;;;;;8.07;5.25;;;5.80;52.00;;;;;;5040009;28;20459;-77
2021/04/28 01:20:11;;;;;;;5.50;4.50;;;5.80;51.50;;;;;;5022466;28;20059;-78
2021/04/28 01:22:37;;;;;;;9.90;5.88;;;5.90;51.30;;;;;;5027935;28;20035;-78
2021/04/28 01:25:03;;;;;;;14.18;7.22;;;6.00;51.20;;;;;;5046712;28;20032;-77
2021/04/28 01:27:29;;;;;;;8.25;7.15;;;5.80;51.40;;;;;;5014301;28;20508;-78
2021/04/28 01:29:55;;;;;;;10.90;6.93;;;5.60;52.20;;;;;;5023037;28;20059;-78
2021/04/28 01:32:21;;;;;;;14.85;7.03;;;5.50;52.60;;;;;;5043411;28;20522;-77
2021/04/28 01:34:47;;;;;;;10.60;7.45;;;5.40;52.60;;;;;;5033354;28;20036;-77
2021/04/28 01:37:13;;;;;;;13.80;7.32;;;5.40;52.50;;;;;;5043464;28;20145;-78
2021/04/28 01:39:39;;;;;;;10.80;7.38;;;5.30;53.00;;;;;;5017460;28;20064;-78
2021/04/28 01:42:04;;;;;;;12.50;7.25;;;5.20;53.40;;;;;;5009942;28;20133;-78
2021/04/28 01:44:30;;;;;;;11.73;7.63;;;5.20;53.50;;;;;;5026665;28;20545;-77
2021/04/28 01:46:55;;;;;;;12.40;7.32;;;5.10;53.40;;;;;;5024940;28;20052;-78
2021/04/28 01:49:21;;;;;;;14.80;7.93;;;5.10;53.50;;;;;;5033660;28;20181;-77
2021/04/28 01:51:47;;;;;;;10.00;6.72;;;5.10;53.90;;;;;;5024965;28;20029;-79
2021/04/28 01:54:17;;;;;;;13.20;7.05;;;5.10;53.00;;;;;;5016247;28;20040;-77
2021/04/28 01:56:47;;;;;;;9.98;7.85;;;5.10;53.60;;;;;;5036949;28;20048;-77
2021/04/28 01:59:16;;;;;;;11.32;7.72;;;4.90;54.30;;;;;;5022724;28;20028;-78
2021/04/28 02:01:45;;;;;;;11.88;7.38;;;4.80;54.80;;;;;;5049222;28;20337;-77
2021/04/28 02:04:11;;;;;;;10.70;7.53;;;4.60;55.40;;;;;;5048305;28;20159;-78
2021/04/28 02:06:39;;;;;;;12.25;7.40;;;4.70;54.30;;;;;;5026556;28;20135;-78
2021/04/28 02:09:05;;;;;;;13.68;7.18;;;4.80;54.30;;;;;;5017226;28;20044;-78
2021/04/28 02:11:31;;;;;;;9.88;7.07;;;4.70;54.10;;;;;;5032484;28;20115;-77
2021/04/28 02:13:56;;;;;;;14.10;7.05;;;4.70;54.10;;;;;;5043569;28;20040;-77
2021/04/28 02:16:22;;;;;;;11.07;7.43;;;4.70;53.70;;;;;;5048792;28;20821;-79
2021/04/28 02:18:47;;;;;;;11.63;7.53;;;4.70;53.40;;;;;;5026555;28;20116;-78
2021/04/28 02:21:13;;;;;;;12.35;7.07;;;4.60;53.60;;;;;;5033139;28;20074;-75
2021/04/28 02:23:40;;;;;;;8.73;6.38;;;4.60;54.20;;;;;;5029283;28;20055;-74
2021/04/28 02:26:05;;;;;;;10.68;6.45;;;4.60;53.40;;;;;;5029486;28;20029;-75
2021/04/28 02:28:32;;;;;;;12.98;8.02;;;4.60;53.60;;;;;;5032846;28;20067;-75
2021/04/28 02:30:58;;;;;;;14.45;7.75;;;4.50;53.80;;;;;;5031779;28;20116;-74
2021/04/28 02:33:24;;;;;;;11.93;7.18;;;4.50;53.70;;;;;;5016719;28;20100;-74
2021/04/28 02:35:49;;;;;;;9.10;7.57;;;4.40;53.90;;;;;;5041007;28;20039;-74
2021/04/28 02:38:36;;;;;;;12.90;8.65;;;4.40;54.30;;;;;;5028442;28;20083;-76
2021/04/28 02:41:02;;;;;;;11.43;7.60;;;4.30;54.00;;;;;;5049488;28;20037;-75
2021/04/28 02:43:28;;;;;;;7.70;5.68;;;4.30;54.00;;;;;;5011125;28;20059;-74
2021/04/28 02:45:54;;;;;;;9.55;5.68;;;4.40;53.70;;;;;;5024497;28;20036;-73
2021/04/28 02:48:20;;;;;;;13.75;8.07;;;4.40;53.90;;;;;;5029730;28;20130;-73
2021/04/28 02:50:45;;;;;;;10.02;6.80;;;4.30;54.00;;;;;;5014299;28;20495;-74
2021/04/28 02:53:13;;;;;;;11.23;7.30;;;4.30;54.50;;;;;;5027736;28;20036;-74
2021/04/28 02:55:38;;;;;;;9.82;6.75;;;4.30;54.80;;;;;;5014424;28;20064;-74
2021/04/28 02:58:04;;;;;;;5.10;4.03;;;4.30;54.50;;;;;;5015314;28;20449;-74
2021/04/28 03:00:30;;;;;;;14.23;7.28;;;4.20;54.20;;;;;;5043075;28;20032;-74
2021/04/28 03:02:57;;;;;;;9.77;6.55;;;4.20;54.40;;;;;;5045985;28;20545;-74
2021/04/28 03:05:23;;;;;;;12.10;7.03;;;4.20;54.80;;;;;;5023440;28;20045;-74
2021/04/28 03:07:48;;;;;;;11.90;7.50;;;4.20;54.90;;;;;;5015437;28;20041;-74
2021/04/28 03:10:14;;;;;;;15.25;8.00;;;4.00;55.10;;;;;;5026565;28;20037;-74
2021/04/28 03:12:40;;;;;;;11.93;7.88;;;4.00;55.10;;;;;;5039131;28;20442;-74
2021/04/28 03:15:08;;;;;;;13.23;8.60;;;3.90;54.90;;;;;;5014408;28;20112;-74
2021/04/28 03:17:34;;;;;;;14.63;8.90;;;3.80;55.00;;;;;;5037896;28;20169;-75
2021/04/28 03:19:59;;;;;;;14.52;7.25;;;3.70;55.10;;;;;;5014818;28;20154;-74
2021/04/28 03:22:25;;;;;;;11.32;8.48;;;3.80;54.90;;;;;;5014875;28;20391;-75
2021/04/28 03:24:50;;;;;;;17.23;9.30;;;3.80;55.00;;;;;;5023198;28;20107;-75
2021/04/28 03:27:16;;;;;;;15.18;9.13;;;3.60;56.10;;;;;;5042054;28;20041;-73
2021/04/28 03:29:42;;;;;;;17.25;9.38;;;3.60;55.90;;;;;;5029836;28;20665;-74
2021/04/28 03:32:08;;;;;;;12.93;9.25;;;3.60;55.70;;;;;;5024290;28;20032;-73
2021/04/28 03:34:33;;;;;;;11.73;7.68;;;3.50;56.80;;;;;;5014928;28;20055;-74
2021/04/28 03:37:01;;;;;;;12.07;7.95;;;3.50;56.40;;;;;;5025490;28;20057;-74
2021/04/28 03:39:27;;;;;;;12.95;8.00;;;3.60;56.50;;;;;;5026777;28;20042;-75
2021/04/28 03:41:53;;;;;;;12.73;8.50;;;3.60;56.10;;;;;;5028123;28;20036;-74
2021/04/28 03:44:18;;;;;;;11.63;8.40;;;3.30;56.40;;;;;;5027250;28;20036;-74
2021/04/28 03:46:44;;;;;;;18.23;8.98;;;3.20;57.20;;;;;;5044856;28;20387;-74
2021/04/28 03:49:09;;;;;;;11.48;8.27;;;3.10;57.70;;;;;;5015876;28;20033;-75
2021/04/28 03:51:35;;;;;;;11.93;8.40;;;3.00;58.80;;;;;;5031096;28;20135;-75
2021/04/28 03:54:01;;;;;;;10.88;6.30;;;3.00;59.20;;;;;;4329936;28;10000520;-76
2021/04/28 03:56:26;;;;;;;10.57;6.85;;;3.10;57.10;;;;;;5063413;28;20041;-75
2021/04/28 03:58:52;;;;;;;15.13;7.32;;;3.20;57.40;;;;;;5026537;28;20055;-74
2021/04/28 04:01:18;;;;;;;9.85;6.80;;;3.30;57.40;;;;;;5027318;28;20592;-75
2021/04/28 04:03:43;;;;;;;13.55;7.97;;;3.10;57.00;;;;;;5034443;28;20036;-75
2021/04/28 04:06:09;;;;;;;16.02;8.05;;;3.00;58.20;;;;;;5023783;28;20029;-74
2021/04/28 04:08:34;;;;;;;14.57;9.18;;;2.70;59.30;;;;;;5013037;28;20028;-74
2021/04/28 04:11:00;;;;;;;16.70;8.98;;;2.80;60.40;;;;;;5040138;28;20373;-75
2021/04/28 04:13:26;;;;;;;11.80;9.20;;;2.60;63.00;;;;;;5008673;28;20731;-75
2021/04/28 04:15:51;;;;;;;15.73;9.70;;;2.60;64.20;;;;;;5014214;28;20112;-75
2021/04/28 04:18:17;;;;;;;14.27;9.07;;;2.60;64.00;;;;;;5025937;28;20476;-75
2021/04/28 04:20:42;;;;;;;15.73;9.60;;;2.60;64.10;;;;;;5025215;28;20036;-74
2021/04/28 04:23:08;;;;;;;16.00;8.77;;;2.70;64.50;;;;;;5044316;28;20037;-74
2021/04/28 04:25:33;;;;;;;23.00;9.02;;;2.60;65.60;;;;;;5030089;28;20038;-75
2021/04/28 04:27:59;;;;;;;15.18;9.95;;;2.60;66.20;;;;;;5028796;28;20644;-75
2021/04/28 04:30:25;;;;;;;13.35;9.48;;;2.60;68.30;;;;;;5041282;28;20480;-76
2021/04/28 04:32:50;;;;;;;16.70;9.93;;;2.60;68.10;;;;;;5025445;28;20024;-74
2021/04/28 04:35:16;;;;;;;13.90;10.00;;;2.50;70.60;;;;;;5027078;28;20354;-74
2021/04/28 04:37:42;;;;;;;17.70;10.90;;;2.30;74.30;;;;;;5042531;28;20039;-74
2021/04/28 04:40:08;;;;;;;14.98;10.02;;;2.30;72.40;;;;;;5024509;28;20037;-74
2021/04/28 04:42:33;;;;;;;19.90;11.25;;;2.20;71.60;;;;;;5010210;28;20373;-74
2021/04/28 04:44:59;;;;;;;17.35;10.57;;;2.40;74.30;;;;;;5037604;28;20467;-74
2021/04/28 04:47:24;;;;;;;15.32;10.23;;;2.60;75.30;;;;;;5036740;28;20258;-76
2021/04/28 04:49:50;;;;;;;15.40;10.23;;;2.70;73.30;;;;;;5030407;28;20515;-74
2021/04/28 04:52:15;;;;;;;15.15;9.77;;;2.80;72.50;;;;;;5013674;28;20579;-73
2021/04/28 04:54:41;;;;;;;16.35;10.57;;;2.80;72.00;;;;;;5011705;28;20044;-74
2021/04/28 04:57:07;;;;;;;21.92;10.15;;;2.90;73.70;;;;;;5010456;28;20041;-74
2021/04/28 04:59:32;;;;;;;16.42;9.68;;;3.00;73.30;;;;;;5023443;28;20036;-74
2021/04/28 05:01:58;;;;;;;22.92;11.82;;;3.20;72.10;;;;;;5042362;28;20761;-74
2021/04/28 05:04:23;;;;;;;23.58;12.68;;;3.40;70.60;;;;;;5014956;28;20058;-73
2021/04/28 05:06:49;;;;;;;19.00;10.38;;;3.50;71.70;;;;;;5035345;28;20202;-74
2021/04/28 05:09:14;;;;;;;15.60;9.95;;;3.50;72.50;;;;;;5032930;28;20115;-75
2021/04/28 05:11:40;;;;;;;19.20;10.20;;;3.60;74.20;;;;;;5041923;28;20029;-75
2021/04/28 05:14:05;;;;;;;13.23;10.00;;;3.70;72.50;;;;;;5042403;28;20029;-75
2021/04/28 05:16:34;;;;;;;21.42;10.70;;;3.80;72.60;;;;;;5015650;28;20028;-75
2021/04/28 05:19:00;;;;;;;16.05;9.25;;;3.90;71.90;;;;;;5026814;28;20062;-75
2021/04/28 05:21:25;;;;;;;13.50;9.48;;;4.10;71.40;;;;;;5029405;28;20040;-75
2021/04/28 05:23:51;;;;;;;14.43;7.95;;;4.10;72.00;;;;;;5041223;28;20063;-74
2021/04/28 05:26:16;;;;;;;15.60;9.10;;;4.20;71.10;;;;;;5007982;28;20040;-73
2021/04/28 05:28:42;;;;;;;12.90;9.00;;;4.30;70.90;;;;;;5024943;28;20021;-74
2021/04/28 05:31:08;;;;;;;17.88;10.27;;;4.40;71.00;;;;;;5038654;28;20033;-74
2021/04/28 05:33:35;;;;;;;13.82;10.10;;;4.40;71.00;;;;;;5030375;28;20032;-74
2021/04/28 05:36:00;;;;;;;17.52;10.45;;;4.40;70.50;;;;;;5040529;28;20017;-74
2021/04/28 05:38:26;;;;;;;16.80;8.77;;;4.50;70.00;;;;;;5024903;28;21867;-74
2021/04/28 05:40:52;;;;;;;11.73;8.80;;;4.60;70.00;;;;;;5039668;28;20120;-74
2021/04/28 05:43:18;;;;;;;12.82;9.57;;;4.80;71.20;;;;;;5042384;28;20148;-74
2021/04/28 05:45:43;;;;;;;14.85;10.48;;;5.00;70.50;;;;;;5062264;28;20392;-73
2021/04/28 05:48:13;;;;;;;14.05;10.75;;;5.10;69.80;;;;;;5041081;28;20036;-74
2021/04/28 05:50:39;;;;;;;14.60;9.05;;;5.20;69.20;;;;;;5011172;28;20040;-75
2021/04/28 05:53:05;;;;;;;17.45;10.82;;;5.30;69.60;;;;;;5030374;28;20029;-75
2021/04/28 05:55:31;;;;;;;13.20;9.18;;;5.50;70.80;;;;;;5025387;28;20037;-75
2021/04/28 05:57:56;;;;;;;17.13;9.88;;;5.70;69.80;;;;;;5005487;28;21372;-75
2021/04/28 06:00:22;;;;;;;18.25;9.85;;;5.90;71.60;;;;;;5025039;28;20047;-74
2021/04/28 06:02:48;;;;;;;16.48;10.38;;;6.10;71.60;;;;;;5024993;28;20104;-74
2021/04/28 06:05:13;;;;;;;13.25;10.95;;;6.30;69.80;;;;;;5009799;28;20242;-74
2021/04/28 06:07:39;;;;;;;21.17;10.45;;;6.40;69.90;;;;;;5021268;28;20235;-75
2021/04/28 06:10:05;;;;;;;18.27;9.55;;;6.60;69.80;;;;;;5017634;28;20089;-75
2021/04/28 06:12:31;;;;;;;15.10;10.77;;;6.80;68.50;;;;;;5012876;28;20387;-75
2021/04/28 06:14:56;;;;;;;20.60;10.35;;;6.90;69.60;;;;;;5000817;28;20450;-74
2021/04/28 06:17:22;;;;;;;14.45;9.25;;;7.10;69.10;;;;;;5028426;28;20047;-75
2021/04/28 06:19:47;;;;;;;17.60;11.60;;;7.30;67.50;;;;;;5043903;28;20444;-74
2021/04/28 06:22:13;;;;;;;16.50;10.77;;;7.50;68.60;;;;;;5066583;28;20198;-74
2021/04/28 06:24:38;;;;;;;13.80;10.20;;;7.50;70.30;;;;;;5031286;28;20503;-74
2021/04/28 06:27:05;;;;;;;14.35;9.50;;;7.70;69.50;;;;;;5028210;28;20115;-74
2021/04/28 06:29:30;;;;;;;14.95;9.35;;;7.90;68.70;;;;;;5025697;28;20060;-74
2021/04/28 06:31:57;;;;;;;14.73;10.07;;;8.10;66.90;;;;;;5047258;28;20060;-74
2021/04/28 06:34:23;;;;;;;14.77;10.00;;;8.30;67.60;;;;;;5065872;28;20033;-73
2021/04/28 06:36:48;;;;;;;19.00;10.43;;;8.40;68.90;;;;;;5029533;28;20040;-74
2021/04/28 06:39:14;;;;;;;16.00;9.30;;;8.50;70.10;;;;;;5042459;28;20127;-74
2021/04/28 06:41:39;;;;;;;14.55;9.90;;;8.70;67.20;;;;;;5045860;28;20027;-74
2021/04/28 06:44:05;;;;;;;22.42;10.25;;;8.90;69.30;;;;;;5015759;28;20113;-75
2021/04/28 06:46:31;;;;;;;16.73;9.50;;;9.10;68.70;;;;;;5045799;28;20024;-73
2021/04/28 06:48:57;;;;;;;19.38;10.48;;;9.30;67.90;;;;;;5026035;28;20472;-74
2021/04/28 06:51:22;;;;;;;16.08;9.05;;;9.40;69.00;;;;;;5012397;28;20017;-74
2021/04/28 06:53:48;;;;;;;14.05;10.05;;;9.60;67.20;;;;;;5009352;28;20028;-74
2021/04/28 06:56:13;;;;;;;15.52;10.48;;;9.80;66.30;;;;;;5044814;28;20124;-73
2021/04/28 06:58:39;;;;;;;14.93;10.02;;;10.00;65.30;;;;;;5032435;28;20764;-74
2021/04/28 07:01:05;;;;;;;19.38;9.98;;;10.20;67.70;;;;;;5040394;28;20111;-74
2021/04/28 07:03:30;;;;;;;17.67;11.82;;;10.40;65.80;;;;;;5030407;28;20086;-73
2021/04/28 07:05:56;;;;;;;16.67;9.88;;;10.60;63.50;;;;;;5008629;28;20097;-74
2021/04/28 07:08:22;;;;;;;19.08;9.43;;;10.90;63.10;;;;;;5025830;28;20131;-74
2021/04/28 07:10:47;;;;;;;20.05;10.30;;;11.20;63.00;;;;;;5041267;28;20024;-74
2021/04/28 07:13:13;;;;;;;20.50;10.05;;;11.40;64.20;;;;;;5014552;28;20518;-74
2021/04/28 07:15:38;;;;;;;17.27;9.48;;;11.80;66.30;;;;;;5020599;28;20033;-75
2021/04/28 07:18:04;;;;;;;15.00;9.98;;;12.20;64.60;;;;;;5032606;28;20503;-73
2021/04/28 07:20:30;;;;;;;13.20;9.82;;;12.40;62.20;;;;;;5024407;28;20052;-74
2021/04/28 07:22:55;;;;;;;12.80;8.43;;;12.70;63.20;;;;;;5043336;28;20166;-75
2021/04/28 07:25:21;;;;;;;15.80;10.45;;;12.80;61.70;;;;;;5042764;28;20484;-74
2021/04/28 07:27:47;;;;;;;16.33;10.30;;;13.00;63.10;;;;;;5039771;28;20035;-74
2021/04/28 07:30:15;;;;;;;13.50;9.82;;;13.10;59.70;;;;;;5022436;28;20033;-73
2021/04/28 07:32:42;;;;;;;19.80;9.73;;;13.20;62.20;;;;;;5009002;28;20042;-74
2021/04/28 07:35:08;;;;;;;13.20;9.00;;;13.20;62.60;;;;;;5013010;28;20127;-74
2021/04/28 07:37:33;;;;;;;17.10;9.35;;;13.40;61.60;;;;;;5010435;28;20028;-75
2021/04/28 07:39:59;;;;;;;13.10;9.90;;;13.40;60.20;;;;;;5045914;28;20489;-74
2021/04/28 07:42:24;;;;;;;19.70;9.05;;;13.50;59.00;;;;;;5042757;28;20043;-74
2021/04/28 07:44:50;;;;;;;13.38;9.98;;;13.60;57.70;;;;;;5025138;28;20033;-75
2021/04/28 07:47:15;;;;;;;14.60;9.02;;;13.80;60.20;;;;;;5030533;28;20526;-75
2021/04/28 07:49:41;;;;;;;11.32;8.45;;;13.90;59.60;;;;;;5013740;28;20101;-76
2021/04/28 07:52:06;;;;;;;14.68;9.65;;;14.10;58.90;;;;;;5035264;28;20120;-74
2021/04/28 07:54:32;;;;;;;19.67;8.88;;;14.00;57.30;;;;;;5013610;28;20127;-74
2021/04/28 07:56:59;;;;;;;13.60;7.80;;;14.00;56.30;;;;;;5011735;28;20108;-75
2021/04/28 07:59:25;;;;;;;13.55;8.48;;;14.00;55.40;;;;;;5013209;28;20025;-74
2021/04/28 08:01:51;;;;;;;18.98;10.65;;;14.20;56.70;;;;;;5042399;28;20043;-74
2021/04/28 08:04:19;;;;;;;19.40;9.20;;;14.40;59.20;;;;;;5029284;28;20094;-74
2021/04/28 08:06:45;;;;;;;10.55;6.38;;;14.60;59.00;;;;;;5042309;28;20586;-75
2021/04/28 08:09:10;;;;;;;19.15;9.65;;;14.80;56.60;;;;;;5014181;28;20344;-75
2021/04/28 08:11:36;;;;;;;15.00;9.45;;;14.80;57.20;;;;;;5028102;28;20357;-75
2021/04/28 08:14:02;;;;;;;20.75;10.00;;;14.90;57.00;;;;;;5029100;28;20091;-76
2021/04/28 08:16:27;;;;;;;19.05;9.48;;;15.00;57.60;;;;;;5042148;28;20075;-75
2021/04/28 08:18:53;;;;;;;20.35;9.77;;;15.10;57.00;;;;;;5012832;28;20400;-75
2021/04/28 08:21:18;;;;;;;12.48;8.20;;;15.10;56.70;;;;;;5021974;28;20027;-76
2021/04/28 08:23:44;;;;;;;14.13;9.93;;;15.20;56.00;;;;;;5023574;28;20082;-76
2021/04/28 08:26:10;;;;;;;16.73;9.82;;;15.30;55.90;;;;;;5063159;28;20028;-75
2021/04/28 08:28:41;;;;;;;16.95;9.48;;;15.40;56.20;;;;;;5013081;28;20031;-76
2021/04/28 08:31:10;;;;;;;13.75;7.93;;;15.50;55.70;;;;;;5013037;28;20020;-76
2021/04/28 08:33:36;;;;;;;26.00;10.77;;;15.60;54.00;;;;;;5029743;28;20024;-76
2021/04/28 08:36:02;;;;;;;17.58;9.60;;;15.80;55.20;;;;;;5029593;28;20412;-75
2021/04/28 08:38:28;;;;;;;16.42;10.32;;;15.80;54.30;;;;;;5022489;28;20064;-76
2021/04/28 08:40:53;;;;;;;15.68;9.63;;;16.00;53.10;;;;;;5043477;28;20182;-75
2021/04/28 08:43:23;;;;;;;19.75;10.93;;;16.00;53.40;;;;;;5025701;28;20503;-76
2021/04/28 08:45:49;;;;;;;21.00;11.00;;;16.00;52.80;;;;;;5039804;28;20036;-76
2021/04/28 08:48:15;;;;;;;15.07;9.88;;;16.20;50.00;;;;;;5012860;28;20032;-76
2021/04/28 08:50:40;;;;;;;13.57;9.13;;;16.30;50.20;;;;;;5062734;28;20505;-76
2021/04/28 08:53:06;;;;;;;14.68;9.02;;;16.40;52.30;;;;;;5013106;28;20040;-76
2021/04/28 08:55:32;;;;;;;17.17;9.65;;;16.60;52.00;;;;;;5025591;28;20063;-76
2021/04/28 08:57:57;;;;;;;16.85;9.63;;;16.70;51.00;;;;;;5027213;28;20787;-77
2021/04/28 09:00:23;;;;;;;13.60;9.80;;;16.80;50.60;;;;;;5008805;28;20113;-76
2021/04/28 09:03:02;;;;;;;15.10;9.05;;;16.90;50.60;;;;;;5038401;28;20630;-76
2021/04/28 09:05:28;;;;;;;15.02;8.63;;;17.20;50.70;;;;;;5029840;28;20033;-76
2021/04/28 09:07:54;;;;;;;16.02;9.30;;;17.40;48.60;;;;;;5012132;28;20064;-76
2021/04/28 09:10:21;;;;;;;12.98;8.55;;;17.50;49.70;;;;;;5009858;28;20028;-76
2021/04/28 09:13:01;;;;;;;12.18;9.13;;;17.50;49.60;;;;;;5013608;28;20056;-76
2021/04/28 09:15:55;;;;;;;14.32;8.98;;;17.60;48.40;;;;;;5028227;28;20020;-77
2021/04/28 09:18:33;;;;;;;10.35;7.60;;;17.60;46.80;;;;;;5003046;28;20090;-76
2021/04/28 09:21:00;;;;;;;18.35;8.98;;;17.70;47.40;;;;;;5031733;28;20506;-77
2021/04/28 09:23:32;;;;;;;13.18;9.60;;;17.80;47.10;;;;;;5013592;28;20041;-76
2021/04/28 09:25:57;;;;;;;12.45;9.73;;;18.10;44.80;;;;;;5026274;28;20063;-76
2021/04/28 09:28:31;;;;;;;13.27;8.70;;;18.30;44.70;;;;;;5013147;28;20462;-77
2021/04/28 09:31:11;;;;;;;16.98;8.65;;;18.50;46.00;;;;;;5027515;28;20044;-77
2021/04/28 09:33:48;;;;;;;14.38;8.77;;;18.60;46.00;;;;;;5019884;28;20412;-75
2021/04/28 09:36:14;;;;;;;15.00;8.57;;;18.80;44.80;;;;;;5028068;28;20037;-75
2021/04/28 09:38:56;;;;;;;8.75;7.20;;;18.90;45.00;;;;;;5023897;28;20064;-74
2021/04/28 09:41:39;;;;;;;11.25;8.27;;;19.20;43.00;;;;;;5029040;28;20044;-75
2021/04/28 09:44:16;;;;;;;9.13;7.47;;;19.50;44.10;;;;;;5026818;28;20159;-76
2021/04/28 09:47:02;;;;;;;12.50;6.97;;;19.60;45.20;;;;;;5061584;28;20021;-76
2021/04/28 09:49:55;;;;;;;12.10;7.90;;;19.60;44.70;;;;;;5031708;28;20373;-76
2021/04/28 09:52:21;;;;;;;13.75;8.55;;;19.70;44.50;;;;;;5016631;28;20450;-76
2021/04/28 09:54:48;;;;;;;11.32;7.85;;;20.00;42.10;;;;;;5042711;28;20033;-76
2021/04/28 09:57:15;;;;;;;12.07;8.52;;;20.00;43.90;;;;;;5029518;28;20063;-77
2021/04/28 09:59:40;;;;;;;9.15;7.53;;;20.40;40.70;;;;;;5032903;28;20052;-77
2021/04/28 10:02:06;;;;;;;11.63;8.90;;;20.50;41.40;;;;;;5068296;28;20519;-77
2021/04/28 10:04:31;;;;;;;12.63;7.78;;;20.50;39.50;;;;;;5017033;28;20514;-78
2021/04/28 10:06:57;;;;;;;14.30;7.80;;;21.10;41.40;;;;;;5018084;28;20055;-78
2021/04/28 10:09:26;;;;;;;12.90;7.80;;;20.90;39.30;;;;;;5012191;28;20365;-78
2021/04/28 10:11:52;;;;;;;11.00;8.10;;;21.40;39.90;;;;;;5044199;28;20082;-78
2021/04/28 10:14:17;;;;;;;13.63;8.07;;;21.30;39.10;;;;;;5032114;28;20496;-78
2021/04/28 10:16:43;;;;;;;10.13;7.97;;;21.40;40.20;;;;;;5043221;28;20029;-78
2021/04/28 10:19:09;;;;;;;11.55;7.53;;;21.70;38.70;;;;;;5026560;28;20060;-78
2021/04/28 10:21:35;;;;;;;12.73;6.93;;;21.60;37.80;;;;;;5030558;28;20542;-78
2021/04/28 10:24:00;;;;;;;11.38;7.97;;;21.80;38.00;;;;;;5016992;28;20035;-78
2021/04/28 10:26:26;;;;;;;12.95;8.02;;;22.10;38.20;;;;;;5047153;28;20028;-78
2021/04/28 10:28:52;;;;;;;14.52;7.88;;;22.00;37.60;;;;;;5027605;28;20123;-78
2021/04/28 10:31:17;;;;;;;12.60;7.32;;;21.90;39.10;;;;;;5011485;28;20484;-79
2021/04/28 10:33:43;;;;;;;6.97;5.85;;;22.10;38.00;;;;;;5028562;28;20029;-79
2021/04/28 10:36:09;;;;;;;11.73;8.35;;;22.90;36.50;;;;;;5016171;28;20108;-79
2021/04/28 10:38:34;;;;;;;7.80;6.10;;;23.00;37.00;;;;;;5029530;28;20237;-80
2021/04/28 10:41:00;;;;;;;11.48;7.85;;;23.00;37.80;;;;;;5013245;28;20039;-79
2021/04/28 10:43:35;;;;;;;9.85;6.82;;;23.30;37.50;;;;;;5015589;28;20036;-79
2021/04/28 10:46:17;;;;;;;14.73;9.10;;;23.20;38.90;;;;;;5027915;28;20024;-80
2021/04/28 10:48:43;;;;;;;17.52;7.20;;;23.20;38.80;;;;;;5017391;28;20033;-81
2021/04/28 10:51:35;;;;;;;9.90;7.13;;;23.20;37.10;;;;;;5032097;28;20108;-80
2021/04/28 10:54:27;;;;;;;11.52;8.20;;;24.00;37.00;;;;;;5048366;28;20021;-80
2021/04/28 10:57:07;;;;;;;14.85;7.93;;;24.00;38.00;;;;;;5051221;28;20404;-80
2021/04/28 10:59:36;;;;;;;7.03;5.72;;;23.60;37.70;;;;;;5015493;28;20040;-80
2021/04/28 11:02:08;;;;;;;11.13;8.32;;;23.80;37.70;;;;;;5032366;28;20097;-80
2021/04/28 11:04:34;;;;;;;12.85;8.15;;;23.70;36.20;;;;;;5046629;28;20025;-81
2021/04/28 11:06:59;;;;;;;13.00;7.35;;;24.20;35.40;;;;;;5032219;28;20021;-81
2021/04/28 11:09:25;;;;;;;13.88;6.90;;;24.20;34.80;;;;;;5016857;28;20446;-81
2021/04/28 11:11:53;;;;;;;14.70;7.72;;;24.20;36.40;;;;;;5029434;28;20029;-81
2021/04/28 11:14:22;;;;;;;10.00;8.32;;;24.40;34.50;;;;;;5029613;28;20036;-81
2021/04/28 11:16:52;;;;;;;9.43;8.15;;;24.40;33.40;;;;;;5049121;28;20025;-81
2021/04/28 11:19:19;;;;;;;8.40;7.10;;;24.30;33.00;;;;;;5031235;28;20499;-81
2021/04/28 11:21:45;;;;;;;7.10;5.63;;;25.10;31.80;;;;;;5035308;28;20637;-82
2021/04/28 11:24:12;;;;;;;14.27;7.47;;;25.50;32.20;;;;;;5021605;28;20027;-82
2021/04/28 11:26:49;;;;;;;12.65;7.40;;;25.80;31.40;;;;;;5036752;28;20029;-82
2021/04/28 11:29:14;;;;;;;9.98;6.38;;;24.90;32.10;;;;;;5038647;28;20499;-82
2021/04/28 11:31:44;;;;;;;8.32;5.68;;;24.70;34.20;;;;;;5024547;28;20028;-83
2021/04/28 11:34:24;;;;;;;9.18;7.43;;;25.00;35.00;;;;;;5022614;28;20044;-83
2021/04/28 11:37:02;;;;;;;9.32;7.93;;;24.90;34.30;;;;;;5052436;28;20036;-83
2021/04/28 11:39:44;;;;;;;9.40;7.55;;;24.90;32.70;;;;;;5051872;28;20060;-84
2021/04/28 11:42:19;;;;;;;6.97;6.28;;;24.90;33.70;;;;;;5035729;28;20107;-84
2021/04/28 11:44:54;;;;;;;13.80;8.02;;;25.10;34.90;;;;;;5031953;28;20025;-83
2021/04/28 11:47:27;;;;;;;10.27;8.35;;;25.10;31.50;;;;;;5017530;28;20491;-83
2021/04/28 11:49:53;;;;;;;10.68;7.88;;;25.10;30.30;;;;;;5027536;28;20029;-85
2021/04/28 11:52:21;;;;;;;11.70;9.20;;;25.10;32.60;;;;;;5016912;28;20028;-85
2021/04/28 11:54:56;;;;;;;14.45;8.07;;;25.10;30.00;;;;;;5018329;28;20021;-85
2021/04/28 11:57:31;;;;;;;8.27;6.38;;;25.10;29.50;;;;;;5015721;28;20044;-86
2021/04/28 12:00:03;;;;;;;10.13;6.28;;;25.20;31.60;;;;;;5042293;28;20123;-84
2021/04/28 12:02:28;;;;;;;10.07;7.50;;;25.40;30.60;;;;;;5067438;28;20038;-87
2021/04/28 12:04:54;;;;;;;9.38;6.50;;;25.40;30.00;;;;;;5011026;28;20029;-86
2021/04/28 12:07:20;;;;;;;6.32;5.22;;;25.80;31.00;;;;;;5030422;28;20089;-85
2021/04/28 12:09:52;;;;;;;8.50;5.32;;;26.10;31.80;;;;;;5016114;28;20521;-87
2021/04/28 12:12:31;;;;;;;6.97;6.05;;;27.90;28.30;;;;;;5035672;28;20036;-86
2021/04/28 12:15:06;;;;;;;12.73;6.75;;;27.10;30.60;;;;;;5035338;28;20055;-87
2021/04/28 12:17:34;;;;;;;10.67;8.30;;;26.40;31.80;;;;;;5039369;28;20029;-87
2021/04/28 12:20:01;;;;;;;10.10;7.10;;;26.20;32.30;;;;;;5011408;28;20037;-88
2021/04/28 12:22:28;;;;;;;9.30;6.15;;;26.00;32.00;;;;;;5026088;28;20036;-87
2021/04/28 12:24:57;;;;;;;13.35;7.90;;;26.00;32.50;;;;;;5028467;28;20036;-87
2021/04/28 12:27:26;;;;;;;12.57;7.78;;;26.10;29.40;;;;;;5028445;28;20037;-85
2021/04/28 12:29:59;;;;;;;4.85;4.43;;;26.50;30.20;;;;;;5016842;28;20028;-87
2021/04/28 12:32:34;;;;;;;10.15;7.60;;;26.90;31.60;;;;;;5048124;28;20064;-87
2021/04/28 12:35:13;;;;;;;10.38;6.97;;;26.90;29.40;;;;;;5039582;28;20032;-87
2021/04/28 12:37:39;;;;;;;11.25;9.10;;;26.50;30.20;;;;;;5045007;28;20032;-87
2021/04/28 12:40:12;;;;;;;7.80;7.07;;;26.50;30.60;;;;;;5035592;28;20028;-87
2021/04/28 12:42:39;;;;;;;10.43;6.45;;;26.60;30.60;;;;;;5027950;28;20506;-87
2021/04/28 12:45:10;;;;;;;6.40;5.80;;;26.80;30.00;;;;;;5011197;28;20502;-89